sensor_id;sensor_type;location;lat;lon;timestamp;P1;durP1;ratioP1;P2;durP2;ratioP2
6197;SDS011;3132;42.622;23.328;2023-07-13T00:01:04;9.43;;;8.73;;
6197;SDS011;3132;42.622;23.328;2023-07-13T00:03:31;8.88;;;8.27;;
6197;SDS011;3132;42.622;23.328;2023-07-13T00:06:00;9.98;;;9.07;;
6197;SDS011;3132;42.622;23.328;2023-07-13T00:08:29;11.23;;;9.80;;
6197;SDS011;3132;42.622;23.328;2023-07-13T00:10:57;9.60;;;8.70;;
6197;SDS011;3132;42.622;23.328;2023-07-13T00:13:23;10.52;;;9.82;;
6197;SDS011;3132;42.622;23.328;2023-07-13T00:15:48;9.50;;;8.70;;
6197;SDS011;3132;42.622;23.328;2023-07-13T00:18:14;9.20;;;8.60;;
6197;SDS011;3132;42.622;23.328;2023-07-13T00:20:39;10.23;;;9.20;;
6197;SDS011;3132;42.622;23.328;2023-07-13T00:23:06;9.82;;;8.93;;
6197;SDS011;3132;42.622;23.328;2023-07-13T00:25:32;10.60;;;9.80;;
6197;SDS011;3132;42.622;23.328;2023-07-13T00:27:57;10.07;;;9.27;;
6197;SDS011;3132;42.622;23.328;2023-07-13T00:30:23;10.05;;;9.45;;
6197;SDS011;3132;42.622;23.328;2023-07-13T00:32:48;11.13;;;10.10;;
6197;SDS011;3132;42.622;23.328;2023-07-13T00:35:14;10.90;;;10.07;;
6197;SDS011;3132;42.622;23.328;2023-07-13T00:37:40;10.25;;;9.20;;
6197;SDS011;3132;42.622;23.328;2023-07-13T00:40:06;9.20;;;8.60;;
6197;SDS011;3132;42.622;23.328;2023-07-13T00:42:32;10.35;;;9.45;;
6197;SDS011;3132;42.622;23.328;2023-07-13T00:47:36;10.20;;;9.32;;
6197;SDS011;3132;42.622;23.328;2023-07-13T00:50:02;11.05;;;10.15;;
6197;SDS011;3132;42.622;23.328;2023-07-13T00:52:28;10.00;;;9.38;;
6197;SDS011;3132;42.622;23.328;2023-07-13T00:54:54;9.75;;;9.07;;
6197;SDS011;3132;42.622;23.328;2023-07-13T00:57:21;10.27;;;9.40;;
6197;SDS011;3132;42.622;23.328;2023-07-13T00:59:48;10.43;;;9.65;;
6197;SDS011;3132;42.622;23.328;2023-07-13T01:02:17;9.73;;;8.98;;
6197;SDS011;3132;42.622;23.328;2023-07-13T01:04:43;10.65;;;9.75;;
6197;SDS011;3132;42.622;23.328;2023-07-13T01:07:09;10.05;;;9.25;;
6197;SDS011;3132;42.622;23.328;2023-07-13T01:09:35;10.50;;;9.55;;
6197;SDS011;3132;42.622;23.328;2023-07-13T01:12:01;10.88;;;9.95;;
6197;SDS011;3132;42.622;23.328;2023-07-13T01:14:26;10.50;;;9.80;;
6197;SDS011;3132;42.622;23.328;2023-07-13T01:16:52;10.15;;;9.45;;
6197;SDS011;3132;42.622;23.328;2023-07-13T01:22:00;9.95;;;9.23;;
6197;SDS011;3132;42.622;23.328;2023-07-13T01:24:26;10.65;;;9.77;;
6197;SDS011;3132;42.622;23.328;2023-07-13T01:26:51;11.65;;;10.60;;
6197;SDS011;3132;42.622;23.328;2023-07-13T01:29:17;11.23;;;10.43;;
6197;SDS011;3132;42.622;23.328;2023-07-13T01:31:42;11.40;;;10.48;;
6197;SDS011;3132;42.622;23.328;2023-07-13T01:34:09;11.23;;;10.27;;
6197;SDS011;3132;42.622;23.328;2023-07-13T01:36:35;12.05;;;11.07;;
6197;SDS011;3132;42.622;23.328;2023-07-13T01:39:01;12.20;;;11.15;;
6197;SDS011;3132;42.622;23.328;2023-07-13T01:41:27;11.88;;;10.82;;
6197;SDS011;3132;42.622;23.328;2023-07-13T01:43:52;12.10;;;11.25;;
6197;SDS011;3132;42.622;23.328;2023-07-13T01:46:18;11.02;;;10.13;;
6197;SDS011;3132;42.622;23.328;2023-07-13T01:48:43;10.82;;;9.90;;
6197;SDS011;3132;42.622;23.328;2023-07-13T01:51:08;10.90;;;9.90;;
6197;SDS011;3132;42.622;23.328;2023-07-13T01:53:34;12.38;;;11.43;;
6197;SDS011;3132;42.622;23.328;2023-07-13T01:55:59;11.40;;;10.50;;
6197;SDS011;3132;42.622;23.328;2023-07-13T01:58:24;11.75;;;10.82;;
6197;SDS011;3132;42.622;23.328;2023-07-13T02:00:51;10.98;;;10.13;;
6197;SDS011;3132;42.622;23.328;2023-07-13T02:03:16;12.40;;;11.45;;
6197;SDS011;3132;42.622;23.328;2023-07-13T02:05:43;12.50;;;10.65;;
6197;SDS011;3132;42.622;23.328;2023-07-13T02:08:09;13.00;;;12.00;;
6197;SDS011;3132;42.622;23.328;2023-07-13T02:10:34;12.00;;;10.95;;
6197;SDS011;3132;42.622;23.328;2023-07-13T02:13:00;11.05;;;9.98;;
6197;SDS011;3132;42.622;23.328;2023-07-13T02:15:25;12.65;;;10.35;;
6197;SDS011;3132;42.622;23.328;2023-07-13T02:17:50;11.13;;;10.20;;
6197;SDS011;3132;42.622;23.328;2023-07-13T02:20:16;12.07;;;11.18;;
6197;SDS011;3132;42.622;23.328;2023-07-13T02:22:41;11.18;;;10.35;;
6197;SDS011;3132;42.622;23.328;2023-07-13T02:25:07;11.38;;;10.50;;
6197;SDS011;3132;42.622;23.328;2023-07-13T02:27:32;11.82;;;10.77;;
6197;SDS011;3132;42.622;23.328;2023-07-13T02:29:58;14.40;;;10.75;;
6197;SDS011;3132;42.622;23.328;2023-07-13T02:32:23;10.88;;;10.07;;
6197;SDS011;3132;42.622;23.328;2023-07-13T02:34:50;10.73;;;10.02;;
6197;SDS011;3132;42.622;23.328;2023-07-13T02:37:17;11.48;;;10.48;;
6197;SDS011;3132;42.622;23.328;2023-07-13T02:39:42;10.75;;;10.05;;
6197;SDS011;3132;42.622;23.328;2023-07-13T02:42:08;13.15;;;10.75;;
6197;SDS011;3132;42.622;23.328;2023-07-13T02:44:33;10.68;;;9.70;;
6197;SDS011;3132;42.622;23.328;2023-07-13T02:46:59;11.38;;;10.45;;
6197;SDS011;3132;42.622;23.328;2023-07-13T02:49:24;11.88;;;10.82;;
6197;SDS011;3132;42.622;23.328;2023-07-13T02:51:50;12.38;;;11.27;;
6197;SDS011;3132;42.622;23.328;2023-07-13T02:54:16;14.75;;;11.15;;
6197;SDS011;3132;42.622;23.328;2023-07-13T02:56:41;11.88;;;10.68;;
6197;SDS011;3132;42.622;23.328;2023-07-13T02:59:08;15.50;;;10.55;;
6197;SDS011;3132;42.622;23.328;2023-07-13T03:01:34;12.35;;;11.15;;
6197;SDS011;3132;42.622;23.328;2023-07-13T03:04:00;16.27;;;10.43;;
6197;SDS011;3132;42.622;23.328;2023-07-13T03:06:26;12.00;;;10.98;;
6197;SDS011;3132;42.622;23.328;2023-07-13T03:08:55;12.20;;;11.23;;
6197;SDS011;3132;42.622;23.328;2023-07-13T03:11:20;11.45;;;10.20;;
6197;SDS011;3132;42.622;23.328;2023-07-13T03:13:46;11.32;;;10.35;;
6197;SDS011;3132;42.622;23.328;2023-07-13T03:16:12;10.38;;;9.68;;
6197;SDS011;3132;42.622;23.328;2023-07-13T03:18:38;10.77;;;9.73;;
6197;SDS011;3132;42.622;23.328;2023-07-13T03:21:04;11.18;;;10.25;;
6197;SDS011;3132;42.622;23.328;2023-07-13T03:23:30;11.57;;;10.57;;
6197;SDS011;3132;42.622;23.328;2023-07-13T03:26:15;10.63;;;9.82;;
6197;SDS011;3132;42.622;23.328;2023-07-13T03:28:43;11.25;;;10.35;;
6197;SDS011;3132;42.622;23.328;2023-07-13T03:31:11;11.65;;;10.75;;
6197;SDS011;3132;42.622;23.328;2023-07-13T03:33:38;11.88;;;10.90;;
6197;SDS011;3132;42.622;23.328;2023-07-13T03:36:05;11.20;;;10.40;;
6197;SDS011;3132;42.622;23.328;2023-07-13T03:44:44;11.35;;;10.55;;
6197;SDS011;3132;42.622;23.328;2023-07-13T03:47:15;12.18;;;11.27;;
6197;SDS011;3132;42.622;23.328;2023-07-13T03:49:41;14.15;;;12.75;;
6197;SDS011;3132;42.622;23.328;2023-07-13T03:52:06;12.63;;;11.52;;
6197;SDS011;3132;42.622;23.328;2023-07-13T03:54:32;14.23;;;12.77;;
6197;SDS011;3132;42.622;23.328;2023-07-13T03:56:57;13.90;;;11.68;;
6197;SDS011;3132;42.622;23.328;2023-07-13T03:59:23;13.05;;;11.73;;
6197;SDS011;3132;42.622;23.328;2023-07-13T04:01:48;18.98;;;12.63;;
6197;SDS011;3132;42.622;23.328;2023-07-13T04:04:14;13.13;;;12.02;;
6197;SDS011;3132;42.622;23.328;2023-07-13T04:06:40;12.75;;;11.45;;
6197;SDS011;3132;42.622;23.328;2023-07-13T04:09:06;12.32;;;11.13;;
6197;SDS011;3132;42.622;23.328;2023-07-13T04:11:31;13.63;;;12.38;;
6197;SDS011;3132;42.622;23.328;2023-07-13T04:13:58;12.75;;;11.60;;
6197;SDS011;3132;42.622;23.328;2023-07-13T04:16:24;13.18;;;11.98;;
6197;SDS011;3132;42.622;23.328;2023-07-13T04:18:50;13.10;;;12.00;;
6197;SDS011;3132;42.622;23.328;2023-07-13T04:21:19;18.50;;;11.80;;
6197;SDS011;3132;42.622;23.328;2023-07-13T04:23:45;12.85;;;11.63;;
6197;SDS011;3132;42.622;23.328;2023-07-13T04:26:11;16.65;;;12.32;;
6197;SDS011;3132;42.622;23.328;2023-07-13T04:28:36;15.90;;;11.77;;
6197;SDS011;3132;42.622;23.328;2023-07-13T04:31:02;13.18;;;12.07;;
6197;SDS011;3132;42.622;23.328;2023-07-13T04:33:27;13.68;;;11.80;;
6197;SDS011;3132;42.622;23.328;2023-07-13T04:35:53;12.02;;;10.93;;
6197;SDS011;3132;42.622;23.328;2023-07-13T04:38:21;12.55;;;11.38;;
6197;SDS011;3132;42.622;23.328;2023-07-13T04:40:47;13.00;;;11.43;;
6197;SDS011;3132;42.622;23.328;2023-07-13T04:43:13;13.68;;;12.40;;
6197;SDS011;3132;42.622;23.328;2023-07-13T04:45:39;20.05;;;13.27;;
6197;SDS011;3132;42.622;23.328;2023-07-13T04:48:04;15.95;;;12.75;;
6197;SDS011;3132;42.622;23.328;2023-07-13T04:50:30;15.63;;;13.38;;
6197;SDS011;3132;42.622;23.328;2023-07-13T04:52:55;15.40;;;12.77;;
6197;SDS011;3132;42.622;23.328;2023-07-13T04:55:21;14.48;;;12.85;;
6197;SDS011;3132;42.622;23.328;2023-07-13T04:57:46;14.18;;;12.70;;
6197;SDS011;3132;42.622;23.328;2023-07-13T05:00:12;13.98;;;12.68;;
6197;SDS011;3132;42.622;23.328;2023-07-13T05:02:38;13.73;;;12.15;;
6197;SDS011;3132;42.622;23.328;2023-07-13T05:05:04;12.77;;;11.68;;
6197;SDS011;3132;42.622;23.328;2023-07-13T05:07:31;15.95;;;13.60;;
6197;SDS011;3132;42.622;23.328;2023-07-13T05:09:58;15.90;;;14.43;;
6197;SDS011;3132;42.622;23.328;2023-07-13T05:12:24;16.13;;;14.32;;
6197;SDS011;3132;42.622;23.328;2023-07-13T05:14:49;18.70;;;14.02;;
6197;SDS011;3132;42.622;23.328;2023-07-13T05:17:15;21.85;;;13.70;;
6197;SDS011;3132;42.622;23.328;2023-07-13T05:19:40;20.40;;;14.38;;
6197;SDS011;3132;42.622;23.328;2023-07-13T05:22:06;20.50;;;14.88;;
6197;SDS011;3132;42.622;23.328;2023-07-13T05:24:31;16.83;;;13.98;;
6197;SDS011;3132;42.622;23.328;2023-07-13T05:26:56;18.88;;;15.50;;
6197;SDS011;3132;42.622;23.328;2023-07-13T05:29:22;16.38;;;14.77;;
6197;SDS011;3132;42.622;23.328;2023-07-13T05:31:48;19.60;;;14.68;;
6197;SDS011;3132;42.622;23.328;2023-07-13T05:34:13;23.95;;;17.02;;
6197;SDS011;3132;42.622;23.328;2023-07-13T05:36:39;18.25;;;15.15;;
6197;SDS011;3132;42.622;23.328;2023-07-13T05:39:05;16.63;;;14.80;;
6197;SDS011;3132;42.622;23.328;2023-07-13T05:41:30;18.33;;;15.95;;
6197;SDS011;3132;42.622;23.328;2023-07-13T05:43:56;27.70;;;15.20;;
6197;SDS011;3132;42.622;23.328;2023-07-13T05:46:21;22.17;;;15.18;;
6197;SDS011;3132;42.622;23.328;2023-07-13T05:48:47;20.23;;;14.23;;
6197;SDS011;3132;42.622;23.328;2023-07-13T05:51:12;15.98;;;12.77;;
6197;SDS011;3132;42.622;23.328;2023-07-13T05:53:38;19.58;;;11.90;;
6197;SDS011;3132;42.622;23.328;2023-07-13T05:56:04;17.60;;;12.38;;
6197;SDS011;3132;42.622;23.328;2023-07-13T05:58:29;15.23;;;11.88;;
6197;SDS011;3132;42.622;23.328;2023-07-13T06:01:05;14.88;;;11.43;;
6197;SDS011;3132;42.622;23.328;2023-07-13T06:03:34;15.05;;;11.73;;
6197;SDS011;3132;42.622;23.328;2023-07-13T06:05:59;14.95;;;11.68;;
6197;SDS011;3132;42.622;23.328;2023-07-13T06:08:25;16.23;;;11.88;;
6197;SDS011;3132;42.622;23.328;2023-07-13T06:10:51;12.02;;;10.80;;
6197;SDS011;3132;42.622;23.328;2023-07-13T06:13:16;16.50;;;11.20;;
6197;SDS011;3132;42.622;23.328;2023-07-13T06:15:47;11.73;;;10.45;;
6197;SDS011;3132;42.622;23.328;2023-07-13T06:18:13;10.95;;;8.95;;
6197;SDS011;3132;42.622;23.328;2023-07-13T06:20:38;15.48;;;11.90;;
6197;SDS011;3132;42.622;23.328;2023-07-13T06:23:04;12.27;;;10.88;;
6197;SDS011;3132;42.622;23.328;2023-07-13T06:25:29;13.32;;;11.48;;
6197;SDS011;3132;42.622;23.328;2023-07-13T06:27:54;12.77;;;11.38;;
6197;SDS011;3132;42.622;23.328;2023-07-13T06:30:20;14.18;;;11.00;;
6197;SDS011;3132;42.622;23.328;2023-07-13T06:32:45;12.02;;;10.48;;
6197;SDS011;3132;42.622;23.328;2023-07-13T06:35:10;21.25;;;11.50;;
6197;SDS011;3132;42.622;23.328;2023-07-13T06:37:38;32.35;;;11.75;;
6197;SDS011;3132;42.622;23.328;2023-07-13T06:40:04;14.60;;;11.45;;
6197;SDS011;3132;42.622;23.328;2023-07-13T06:42:30;23.92;;;11.63;;
6197;SDS011;3132;42.622;23.328;2023-07-13T06:44:55;21.17;;;11.15;;
6197;SDS011;3132;42.622;23.328;2023-07-13T06:47:20;13.20;;;11.43;;
6197;SDS011;3132;42.622;23.328;2023-07-13T06:49:46;22.23;;;11.07;;
6197;SDS011;3132;42.622;23.328;2023-07-13T06:52:11;18.23;;;11.55;;
6197;SDS011;3132;42.622;23.328;2023-07-13T06:54:36;16.80;;;11.60;;
6197;SDS011;3132;42.622;23.328;2023-07-13T06:57:02;19.10;;;12.23;;
6197;SDS011;3132;42.622;23.328;2023-07-13T06:59:27;15.93;;;12.05;;
6197;SDS011;3132;42.622;23.328;2023-07-13T07:01:53;22.50;;;12.60;;
6197;SDS011;3132;42.622;23.328;2023-07-13T07:04:18;15.00;;;13.38;;
6197;SDS011;3132;42.622;23.328;2023-07-13T07:06:43;14.48;;;12.93;;
6197;SDS011;3132;42.622;23.328;2023-07-13T07:09:09;15.15;;;12.88;;
6197;SDS011;3132;42.622;23.328;2023-07-13T07:11:34;15.82;;;12.52;;
6197;SDS011;3132;42.622;23.328;2023-07-13T07:13:59;22.08;;;12.90;;
6197;SDS011;3132;42.622;23.328;2023-07-13T07:16:25;15.68;;;12.77;;
6197;SDS011;3132;42.622;23.328;2023-07-13T07:18:51;20.25;;;12.82;;
6197;SDS011;3132;42.622;23.328;2023-07-13T07:21:16;14.20;;;12.80;;
6197;SDS011;3132;42.622;23.328;2023-07-13T07:23:42;16.08;;;11.88;;
6197;SDS011;3132;42.622;23.328;2023-07-13T07:26:08;14.82;;;12.73;;
6197;SDS011;3132;42.622;23.328;2023-07-13T07:28:35;14.82;;;13.35;;
6197;SDS011;3132;42.622;23.328;2023-07-13T07:31:00;15.10;;;13.45;;
6197;SDS011;3132;42.622;23.328;2023-07-13T07:33:26;14.70;;;13.18;;
6197;SDS011;3132;42.622;23.328;2023-07-13T07:35:51;14.05;;;12.63;;
6197;SDS011;3132;42.622;23.328;2023-07-13T07:38:17;15.20;;;13.00;;
6197;SDS011;3132;42.622;23.328;2023-07-13T07:40:42;15.05;;;12.65;;
6197;SDS011;3132;42.622;23.328;2023-07-13T07:43:09;14.63;;;12.63;;
6197;SDS011;3132;42.622;23.328;2023-07-13T07:45:36;14.50;;;13.00;;
6197;SDS011;3132;42.622;23.328;2023-07-13T07:48:02;14.35;;;12.77;;
6197;SDS011;3132;42.622;23.328;2023-07-13T07:50:28;14.73;;;13.20;;
6197;SDS011;3132;42.622;23.328;2023-07-13T07:52:54;14.02;;;12.60;;
6197;SDS011;3132;42.622;23.328;2023-07-13T07:55:21;14.32;;;12.98;;
6197;SDS011;3132;42.622;23.328;2023-07-13T07:57:47;14.82;;;13.40;;
6197;SDS011;3132;42.622;23.328;2023-07-13T08:00:13;14.07;;;12.73;;
6197;SDS011;3132;42.622;23.328;2023-07-13T08:02:38;14.27;;;12.75;;
6197;SDS011;3132;42.622;23.328;2023-07-13T08:05:06;13.23;;;12.05;;
6197;SDS011;3132;42.622;23.328;2023-07-13T08:07:32;13.60;;;12.15;;
6197;SDS011;3132;42.622;23.328;2023-07-13T08:09:57;13.82;;;12.57;;
6197;SDS011;3132;42.622;23.328;2023-07-13T08:12:23;14.65;;;12.85;;
6197;SDS011;3132;42.622;23.328;2023-07-13T08:14:51;15.10;;;13.40;;
6197;SDS011;3132;42.622;23.328;2023-07-13T08:17:23;16.52;;;13.10;;
6197;SDS011;3132;42.622;23.328;2023-07-13T08:19:49;13.45;;;12.20;;
6197;SDS011;3132;42.622;23.328;2023-07-13T08:22:15;14.23;;;12.73;;
6197;SDS011;3132;42.622;23.328;2023-07-13T08:24:40;13.68;;;12.45;;
6197;SDS011;3132;42.622;23.328;2023-07-13T08:27:07;14.20;;;12.90;;
6197;SDS011;3132;42.622;23.328;2023-07-13T08:29:33;15.52;;;13.93;;
6197;SDS011;3132;42.622;23.328;2023-07-13T08:31:58;13.43;;;12.20;;
6197;SDS011;3132;42.622;23.328;2023-07-13T08:34:24;14.20;;;12.70;;
6197;SDS011;3132;42.622;23.328;2023-07-13T08:36:49;13.73;;;12.45;;
6197;SDS011;3132;42.622;23.328;2023-07-13T08:39:15;16.27;;;13.13;;
6197;SDS011;3132;42.622;23.328;2023-07-13T08:41:40;15.60;;;11.85;;
6197;SDS011;3132;42.622;23.328;2023-07-13T08:44:06;15.98;;;12.45;;
6197;SDS011;3132;42.622;23.328;2023-07-13T08:46:44;17.17;;;13.13;;
6197;SDS011;3132;42.622;23.328;2023-07-13T08:49:13;16.23;;;13.43;;
6197;SDS011;3132;42.622;23.328;2023-07-13T08:51:49;14.30;;;12.60;;
6197;SDS011;3132;42.622;23.328;2023-07-13T08:54:23;15.13;;;13.45;;
6197;SDS011;3132;42.622;23.328;2023-07-13T08:57:03;13.60;;;12.20;;
6197;SDS011;3132;42.622;23.328;2023-07-13T08:59:37;13.10;;;11.73;;
6197;SDS011;3132;42.622;23.328;2023-07-13T09:07:50;13.27;;;11.25;;
6197;SDS011;3132;42.622;23.328;2023-07-13T09:10:41;13.18;;;11.95;;
6197;SDS011;3132;42.622;23.328;2023-07-13T09:15:52;13.02;;;11.93;;
6197;SDS011;3132;42.622;23.328;2023-07-13T09:20:54;15.80;;;12.77;;
6197;SDS011;3132;42.622;23.328;2023-07-13T09:23:22;13.70;;;12.43;;
6197;SDS011;3132;42.622;23.328;2023-07-13T09:25:50;18.55;;;12.70;;
6197;SDS011;3132;42.622;23.328;2023-07-13T09:28:25;14.82;;;11.95;;
6197;SDS011;3132;42.622;23.328;2023-07-13T09:31:14;15.07;;;12.80;;
6197;SDS011;3132;42.622;23.328;2023-07-13T09:33:42;13.90;;;12.48;;
6197;SDS011;3132;42.622;23.328;2023-07-13T09:36:40;15.57;;;13.35;;
6197;SDS011;3132;42.622;23.328;2023-07-13T09:41:37;12.68;;;11.45;;
6197;SDS011;3132;42.622;23.328;2023-07-13T09:44:14;16.38;;;12.88;;
6197;SDS011;3132;42.622;23.328;2023-07-13T09:46:45;13.15;;;11.85;;
6197;SDS011;3132;42.622;23.328;2023-07-13T09:49:12;14.50;;;12.57;;
6197;SDS011;3132;42.622;23.328;2023-07-13T09:51:38;13.45;;;11.38;;
6197;SDS011;3132;42.622;23.328;2023-07-13T09:54:05;13.13;;;11.80;;
6197;SDS011;3132;42.622;23.328;2023-07-13T09:56:42;14.27;;;12.55;;
6197;SDS011;3132;42.622;23.328;2023-07-13T09:59:17;13.70;;;12.35;;
6197;SDS011;3132;42.622;23.328;2023-07-13T10:01:44;15.23;;;12.63;;
6197;SDS011;3132;42.622;23.328;2023-07-13T10:04:13;13.95;;;12.57;;
6197;SDS011;3132;42.622;23.328;2023-07-13T10:06:41;13.80;;;12.25;;
6197;SDS011;3132;42.622;23.328;2023-07-13T10:09:08;14.45;;;13.05;;
6197;SDS011;3132;42.622;23.328;2023-07-13T10:11:34;13.40;;;11.90;;
6197;SDS011;3132;42.622;23.328;2023-07-13T10:14:03;14.77;;;11.88;;
6197;SDS011;3132;42.622;23.328;2023-07-13T10:16:36;13.45;;;12.05;;
6197;SDS011;3132;42.622;23.328;2023-07-13T10:19:03;14.38;;;12.88;;
6197;SDS011;3132;42.622;23.328;2023-07-13T10:21:36;13.98;;;12.70;;
6197;SDS011;3132;42.622;23.328;2023-07-13T10:24:16;13.55;;;12.23;;
6197;SDS011;3132;42.622;23.328;2023-07-13T10:26:52;13.75;;;12.40;;
6197;SDS011;3132;42.622;23.328;2023-07-13T10:29:23;14.48;;;13.07;;
6197;SDS011;3132;42.622;23.328;2023-07-13T10:31:52;14.13;;;12.38;;
6197;SDS011;3132;42.622;23.328;2023-07-13T10:34:17;17.70;;;13.95;;
6197;SDS011;3132;42.622;23.328;2023-07-13T10:36:44;13.80;;;12.48;;
6197;SDS011;3132;42.622;23.328;2023-07-13T10:39:16;14.02;;;11.98;;
6197;SDS011;3132;42.622;23.328;2023-07-13T10:41:49;15.00;;;12.27;;
6197;SDS011;3132;42.622;23.328;2023-07-13T10:44:19;15.73;;;14.10;;
6197;SDS011;3132;42.622;23.328;2023-07-13T10:46:51;14.27;;;12.82;;
6197;SDS011;3132;42.622;23.328;2023-07-13T10:49:26;14.48;;;12.90;;
6197;SDS011;3132;42.622;23.328;2023-07-13T10:51:52;13.75;;;11.48;;
6197;SDS011;3132;42.622;23.328;2023-07-13T10:54:30;15.05;;;12.77;;
6197;SDS011;3132;42.622;23.328;2023-07-13T10:59:37;17.88;;;13.18;;
6197;SDS011;3132;42.622;23.328;2023-07-13T11:04:31;18.48;;;12.93;;
6197;SDS011;3132;42.622;23.328;2023-07-13T11:07:19;13.55;;;12.15;;
6197;SDS011;3132;42.622;23.328;2023-07-13T11:09:52;13.63;;;12.32;;
6197;SDS011;3132;42.622;23.328;2023-07-13T11:17:46;18.05;;;12.60;;
6197;SDS011;3132;42.622;23.328;2023-07-13T11:22:48;18.58;;;11.30;;
6197;SDS011;3132;42.622;23.328;2023-07-13T11:28:37;19.38;;;12.55;;
6197;SDS011;3132;42.622;23.328;2023-07-13T11:36:05;14.40;;;12.05;;
6197;SDS011;3132;42.622;23.328;2023-07-13T11:38:41;14.85;;;11.52;;
6197;SDS011;3132;42.622;23.328;2023-07-13T11:41:28;16.42;;;12.85;;
6197;SDS011;3132;42.622;23.328;2023-07-13T11:44:17;17.15;;;11.80;;
6197;SDS011;3132;42.622;23.328;2023-07-13T11:46:45;14.07;;;11.52;;
6197;SDS011;3132;42.622;23.328;2023-07-13T11:49:19;15.70;;;12.40;;
6197;SDS011;3132;42.622;23.328;2023-07-13T11:51:46;13.90;;;11.18;;
6197;SDS011;3132;42.622;23.328;2023-07-13T11:54:27;13.65;;;11.50;;
6197;SDS011;3132;42.622;23.328;2023-07-13T11:57:41;13.23;;;11.77;;
6197;SDS011;3132;42.622;23.328;2023-07-13T11:59:54;12.85;;;11.55;;
6197;SDS011;3132;42.622;23.328;2023-07-13T12:04:55;13.60;;;10.45;;
6197;SDS011;3132;42.622;23.328;2023-07-13T12:07:22;19.27;;;11.82;;
6197;SDS011;3132;42.622;23.328;2023-07-13T12:09:48;11.82;;;10.57;;
6197;SDS011;3132;42.622;23.328;2023-07-13T12:12:19;16.38;;;11.95;;
6197;SDS011;3132;42.622;23.328;2023-07-13T12:14:50;12.43;;;11.23;;
6197;SDS011;3132;42.622;23.328;2023-07-13T12:17:20;17.50;;;11.38;;
6197;SDS011;3132;42.622;23.328;2023-07-13T12:19:48;12.00;;;10.48;;
6197;SDS011;3132;42.622;23.328;2023-07-13T12:22:16;12.23;;;10.98;;
6197;SDS011;3132;42.622;23.328;2023-07-13T12:24:43;18.10;;;11.15;;
6197;SDS011;3132;42.622;23.328;2023-07-13T12:33:07;12.13;;;10.82;;
6197;SDS011;3132;42.622;23.328;2023-07-13T12:35:40;11.48;;;10.45;;
6197;SDS011;3132;42.622;23.328;2023-07-13T12:38:11;12.80;;;11.57;;
6197;SDS011;3132;42.622;23.328;2023-07-13T12:40:37;16.73;;;10.48;;
6197;SDS011;3132;42.622;23.328;2023-07-13T12:43:05;12.73;;;10.82;;
6197;SDS011;3132;42.622;23.328;2023-07-13T12:45:36;13.98;;;10.48;;
6197;SDS011;3132;42.622;23.328;2023-07-13T12:48:10;11.63;;;10.40;;
6197;SDS011;3132;42.622;23.328;2023-07-13T12:50:42;11.77;;;10.60;;
6197;SDS011;3132;42.622;23.328;2023-07-13T12:53:14;13.50;;;11.20;;
6197;SDS011;3132;42.622;23.328;2023-07-13T12:55:46;12.68;;;11.38;;
6197;SDS011;3132;42.622;23.328;2023-07-13T12:58:27;13.90;;;11.70;;
6197;SDS011;3132;42.622;23.328;2023-07-13T13:01:01;11.75;;;10.73;;
6197;SDS011;3132;42.622;23.328;2023-07-13T13:06:22;15.38;;;11.07;;
6197;SDS011;3132;42.622;23.328;2023-07-13T13:08:49;13.60;;;11.40;;
6197;SDS011;3132;42.622;23.328;2023-07-13T13:11:17;13.15;;;11.73;;
6197;SDS011;3132;42.622;23.328;2023-07-13T13:13:43;13.13;;;11.90;;
6197;SDS011;3132;42.622;23.328;2023-07-13T13:16:11;12.38;;;11.07;;
6197;SDS011;3132;42.622;23.328;2023-07-13T13:18:42;14.20;;;11.07;;
6197;SDS011;3132;42.622;23.328;2023-07-13T13:21:08;15.13;;;11.82;;
6197;SDS011;3132;42.622;23.328;2023-07-13T13:23:35;15.13;;;11.85;;
6197;SDS011;3132;42.622;23.328;2023-07-13T13:26:00;13.30;;;11.48;;
6197;SDS011;3132;42.622;23.328;2023-07-13T13:28:27;14.50;;;12.20;;
6197;SDS011;3132;42.622;23.328;2023-07-13T13:30:52;13.90;;;11.25;;
6197;SDS011;3132;42.622;23.328;2023-07-13T13:33:18;16.17;;;11.35;;
6197;SDS011;3132;42.622;23.328;2023-07-13T13:35:45;13.45;;;10.38;;
6197;SDS011;3132;42.622;23.328;2023-07-13T13:40:39;14.05;;;10.77;;
6197;SDS011;3132;42.622;23.328;2023-07-13T13:43:13;12.98;;;11.30;;
6197;SDS011;3132;42.622;23.328;2023-07-13T13:45:41;13.00;;;11.10;;
6197;SDS011;3132;42.622;23.328;2023-07-13T13:48:12;17.63;;;11.30;;
6197;SDS011;3132;42.622;23.328;2023-07-13T13:50:39;21.40;;;11.25;;
6197;SDS011;3132;42.622;23.328;2023-07-13T13:53:07;14.65;;;10.88;;
6197;SDS011;3132;42.622;23.328;2023-07-13T13:55:35;16.63;;;11.55;;
6197;SDS011;3132;42.622;23.328;2023-07-13T13:58:00;14.07;;;10.82;;
6197;SDS011;3132;42.622;23.328;2023-07-13T14:00:25;12.90;;;11.07;;
6197;SDS011;3132;42.622;23.328;2023-07-13T14:02:51;13.75;;;11.07;;
6197;SDS011;3132;42.622;23.328;2023-07-13T14:05:26;14.13;;;11.15;;
6197;SDS011;3132;42.622;23.328;2023-07-13T14:07:52;21.50;;;10.48;;
6197;SDS011;3132;42.622;23.328;2023-07-13T14:10:18;16.60;;;11.98;;
6197;SDS011;3132;42.622;23.328;2023-07-13T14:12:50;14.90;;;10.73;;
6197;SDS011;3132;42.622;23.328;2023-07-13T14:17:46;11.80;;;10.48;;
6197;SDS011;3132;42.622;23.328;2023-07-13T14:20:15;17.77;;;11.30;;
6197;SDS011;3132;42.622;23.328;2023-07-13T14:22:41;12.70;;;10.45;;
6197;SDS011;3132;42.622;23.328;2023-07-13T14:25:10;12.68;;;10.95;;
6197;SDS011;3132;42.622;23.328;2023-07-13T14:27:40;12.73;;;11.48;;
6197;SDS011;3132;42.622;23.328;2023-07-13T14:30:15;15.02;;;11.65;;
6197;SDS011;3132;42.622;23.328;2023-07-13T14:32:43;16.77;;;11.35;;
6197;SDS011;3132;42.622;23.328;2023-07-13T14:35:12;12.48;;;11.13;;
6197;SDS011;3132;42.622;23.328;2023-07-13T14:37:41;14.10;;;12.07;;
6197;SDS011;3132;42.622;23.328;2023-07-13T14:40:12;13.32;;;10.82;;
6197;SDS011;3132;42.622;23.328;2023-07-13T14:42:38;12.07;;;10.63;;
6197;SDS011;3132;42.622;23.328;2023-07-13T14:45:04;12.98;;;10.60;;
6197;SDS011;3132;42.622;23.328;2023-07-13T14:47:30;14.68;;;11.52;;
6197;SDS011;3132;42.622;23.328;2023-07-13T14:49:55;13.00;;;10.18;;
6197;SDS011;3132;42.622;23.328;2023-07-13T14:52:22;18.88;;;12.30;;
6197;SDS011;3132;42.622;23.328;2023-07-13T14:54:49;16.35;;;11.73;;
6197;SDS011;3132;42.622;23.328;2023-07-13T14:57:16;15.68;;;11.00;;
6197;SDS011;3132;42.622;23.328;2023-07-13T14:59:44;15.02;;;11.20;;
6197;SDS011;3132;42.622;23.328;2023-07-13T15:04:54;12.77;;;11.13;;
6197;SDS011;3132;42.622;23.328;2023-07-13T15:07:20;14.35;;;12.18;;
6197;SDS011;3132;42.622;23.328;2023-07-13T15:09:46;17.00;;;11.57;;
6197;SDS011;3132;42.622;23.328;2023-07-13T15:12:12;12.48;;;11.18;;
6197;SDS011;3132;42.622;23.328;2023-07-13T15:14:38;11.52;;;10.35;;
6197;SDS011;3132;42.622;23.328;2023-07-13T15:17:04;11.60;;;10.40;;
6197;SDS011;3132;42.622;23.328;2023-07-13T15:19:30;16.60;;;10.32;;
6197;SDS011;3132;42.622;23.328;2023-07-13T15:21:56;15.15;;;10.68;;
6197;SDS011;3132;42.622;23.328;2023-07-13T15:24:25;17.42;;;10.88;;
6197;SDS011;3132;42.622;23.328;2023-07-13T15:26:51;16.40;;;10.25;;
6197;SDS011;3132;42.622;23.328;2023-07-13T15:29:17;18.67;;;10.75;;
6197;SDS011;3132;42.622;23.328;2023-07-13T15:31:43;11.63;;;9.90;;
6197;SDS011;3132;42.622;23.328;2023-07-13T15:34:13;12.38;;;9.60;;
6197;SDS011;3132;42.622;23.328;2023-07-13T15:36:41;14.02;;;10.15;;
6197;SDS011;3132;42.622;23.328;2023-07-13T15:39:06;15.60;;;8.73;;
6197;SDS011;3132;42.622;23.328;2023-07-13T15:41:32;12.13;;;9.75;;
6197;SDS011;3132;42.622;23.328;2023-07-13T15:43:59;15.55;;;11.05;;